Time;durP1;ratioP1;P1;durP2;ratioP2;P2;SDS_P1;SDS_P2;PMS_P1;PMS_P2;Temp;Humidity;BMP_temperature;BMP_pressure;BME280_temperature;BME280_humidity;BME280_pressure;Samples;Min_cycle;Max_cycle;Signal;HPM_P1;HPM_P2
2023/05/19 00:01:46;;;;;;;6.32;5.50;;;;;;;11.73;64.08;94084.72;4999799;28;20069;-73
2023/05/19 00:04:13;;;;;;;8.93;4.63;;;;;;;11.81;64.05;94075.91;4993337;28;20045;-74
2023/05/19 00:06:40;;;;;;;6.00;5.15;;;;;;;11.72;65.25;94082.34;4996801;28;20030;-74
2023/05/19 00:09:10;;;;;;;9.60;5.43;;;;;;;11.89;65.03;94088.44;4996206;28;20473;-75
2023/05/19 00:11:37;;;;;;;4.47;4.03;;;;;;;12.01;63.78;94085.94;5002792;28;20104;-75
2023/05/19 00:14:08;;;;;;;8.02;5.18;;;;;;;11.98;63.55;94075.91;4993963;28;20071;-72
2023/05/19 00:16:34;;;;;;;5.85;5.18;;;;;;;11.90;63.63;94073.25;4997805;28;20038;-73
2023/05/19 00:19:02;;;;;;;6.93;4.65;;;;;;;12.09;63.26;94086.25;4994336;28;20137;-71
2023/05/19 00:21:28;;;;;;;5.97;4.40;;;;;;;12.15;62.71;94085.78;4997271;28;20062;-72
2023/05/19 00:23:55;;;;;;;8.52;4.05;;;;;;;12.08;62.49;94068.69;4982250;28;20625;-74
2023/05/19 00:26:21;;;;;;;5.90;4.95;;;;;;;12.14;62.79;94067.41;4966917;28;20041;-73
2023/05/19 00:28:48;;;;;;;6.05;4.68;;;;;;;12.23;62.11;94076.97;4969188;28;20238;-73
2023/05/19 00:31:13;;;;;;;8.30;4.65;;;;;;;12.12;62.74;94075.75;4971244;28;20038;-73
2023/05/19 00:33:39;;;;;;;6.57;4.72;;;;;;;11.89;62.88;94061.78;4976371;28;20042;-75
2023/05/19 00:36:05;;;;;;;5.68;4.65;;;;;;;11.66;62.72;94028.44;4961725;28;20034;-73
2023/05/19 00:38:31;;;;;;;5.45;4.75;;;;;;;11.33;62.60;93987.34;4977025;28;20042;-75
2023/05/19 00:40:56;;;;;;;7.15;4.90;;;;;;;11.85;62.25;94060.88;4966388;28;20125;-76
2023/05/19 00:43:22;;;;;;;5.38;4.40;;;;;;;11.74;62.26;94070.25;4965297;28;20950;-73
2023/05/19 00:45:47;;;;;;;5.00;4.43;;;;;;;11.69;62.65;94062.44;4964599;28;20124;-75
2023/05/19 00:48:13;;;;;;;9.23;4.50;;;;;;;11.68;62.90;94047.56;4971353;28;20988;-75
2023/05/19 00:50:39;;;;;;;7.00;4.18;;;;;;;11.85;62.11;94062.75;4986296;28;22363;-75
2023/05/19 00:53:05;;;;;;;4.28;3.85;;;;;;;11.82;62.88;94050.84;4967566;28;20038;-73
2023/05/19 00:55:33;;;;;;;6.10;4.75;;;;;;;11.88;62.86;94052.22;4974823;28;20089;-75
2023/05/19 00:57:59;;;;;;;6.88;4.60;;;;;;;12.01;62.25;94053.97;4967373;28;20474;-74
2023/05/19 01:00:24;;;;;;;7.28;4.45;;;;;;;11.91;62.16;94038.28;4952421;28;20042;-74
2023/05/19 01:02:50;;;;;;;5.32;4.10;;;;;;;12.04;61.26;94048.00;4963790;28;20121;-73
2023/05/19 01:05:16;;;;;;;4.70;4.18;;;;;;;11.88;61.48;94041.56;4962370;28;21247;-74
2023/05/19 01:07:41;;;;;;;6.68;4.78;;;;;;;12.01;61.57;94053.97;4966924;28;20042;-75
2023/05/19 01:10:08;;;;;;;5.00;4.53;;;;;;;12.06;61.46;94054.91;4969807;28;20165;-74
2023/05/19 01:12:34;;;;;;;8.25;4.25;;;;;;;12.06;61.11;94060.22;4976703;28;20249;-75
2023/05/19 01:15:01;;;;;;;11.07;4.57;;;;;;;12.06;60.95;94061.00;4973901;28;20121;-75
2023/05/19 01:17:41;;;;;;;8.93;4.22;;;;;;;11.93;61.84;94067.31;4988986;28;20040;-74
2023/05/19 01:20:30;;;;;;;9.23;4.93;;;;;;;11.94;61.40;94056.31;4985480;28;20797;-74
2023/05/19 01:23:30;;;;;;;6.03;5.10;;;;;;;12.04;61.08;94074.66;5007787;28;20239;-75
2023/05/19 01:26:18;;;;;;;5.20;4.43;;;;;;;12.07;61.93;94073.25;4996846;28;20563;-75
2023/05/19 01:28:52;;;;;;;5.53;4.55;;;;;;;11.88;62.02;94060.22;4990947;28;20049;-74
2023/05/19 01:31:22;;;;;;;7.17;4.90;;;;;;;11.86;61.96;94059.78;4997048;28;20034;-74
2023/05/19 01:33:50;;;;;;;5.10;4.60;;;;;;;11.89;61.54;94056.47;4994095;28;20923;-74
2023/05/19 01:36:17;;;;;;;4.68;4.22;;;;;;;11.83;62.45;94056.97;4993531;28;20038;-75
2023/05/19 01:38:45;;;;;;;7.82;5.30;;;;;;;11.92;61.49;94053.19;4994636;28;20026;-74
2023/05/19 01:41:11;;;;;;;4.93;4.20;;;;;;;11.97;61.07;94053.03;4987798;28;20022;-75
2023/05/19 01:43:37;;;;;;;5.95;4.43;;;;;;;11.89;61.26;94058.34;4995480;28;20054;-75
2023/05/19 01:46:04;;;;;;;6.13;4.60;;;;;;;11.89;61.20;94061.78;5001154;28;20042;-75
2023/05/19 01:48:31;;;;;;;7.80;4.65;;;;;;;11.76;61.43;94054.75;4989333;28;20038;-74
2023/05/19 01:50:57;;;;;;;7.72;5.05;;;;;;;11.67;62.29;94047.88;4992487;28;20122;-75
2023/05/19 01:53:23;;;;;;;5.60;4.90;;;;;;;11.72;62.13;94067.16;4985932;28;20073;-73
2023/05/19 01:55:51;;;;;;;6.05;5.43;;;;;;;11.64;62.51;94064.50;4996750;28;20038;-75
2023/05/19 01:58:33;;;;;;;5.88;5.28;;;;;;;11.77;62.51;94069.66;4996069;28;20034;-75
2023/05/19 02:01:20;;;;;;;6.28;5.28;;;;;;;11.67;62.76;94069.97;4988165;28;20516;-75
2023/05/19 02:04:04;;;;;;;4.97;4.45;;;;;;;11.63;62.99;94076.22;4988333;28;20152;-74
2023/05/19 02:06:40;;;;;;;6.22;5.57;;;;;;;11.60;63.45;94075.75;5002805;28;20085;-74
2023/05/19 02:09:24;;;;;;;8.57;6.13;;;;;;;11.65;63.46;94066.81;4978338;28;20038;-75
2023/05/19 02:12:10;;;;;;;7.50;5.90;;;;;;;11.58;63.99;94059.31;5007356;28;20103;-75
2023/05/19 02:14:49;;;;;;;10.52;5.88;;;;;;;11.59;63.64;94057.41;4994257;28;20040;-74
2023/05/19 02:17:16;;;;;;;7.47;6.35;;;;;;;11.61;63.94;94071.22;4989576;28;20033;-75
2023/05/19 02:19:42;;;;;;;11.07;6.10;;;;;;;11.67;63.77;94075.28;4989650;28;20045;-75
2023/05/19 02:22:08;;;;;;;8.70;6.90;;;;;;;11.39;64.66;94063.34;4994461;28;20041;-75
2023/05/19 02:24:33;;;;;;;11.27;7.63;;;;;;;11.24;65.51;94067.22;4993909;28;20034;-76
2023/05/19 02:26:59;;;;;;;9.73;6.70;;;;;;;11.51;64.89;94076.84;4993297;28;20393;-75
2023/05/19 02:29:24;;;;;;;7.55;6.32;;;;;;;11.42;64.76;94063.50;4979760;28;20037;-74
2023/05/19 02:31:50;;;;;;;9.45;7.22;;;;;;;11.35;65.71;94062.38;4990502;28;20061;-75
2023/05/19 02:34:15;;;;;;;9.35;6.60;;;;;;;11.51;65.53;94076.84;4985755;28;20034;-75
2023/05/19 02:36:41;;;;;;;9.18;6.82;;;;;;;11.53;65.38;94082.66;4995521;28;20551;-75
2023/05/19 02:39:09;;;;;;;8.85;7.10;;;;;;;11.42;65.15;94078.69;4991010;28;20042;-73
2023/05/19 02:41:35;;;;;;;9.75;7.65;;;;;;;11.40;65.24;94070.22;4990692;28;20030;-74
2023/05/19 02:44:00;;;;;;;9.40;6.68;;;;;;;11.36;65.58;94067.38;4992731;28;20472;-74
2023/05/19 02:46:26;;;;;;;10.52;7.43;;;;;;;11.41;65.02;94074.44;4990550;28;20042;-75
2023/05/19 02:48:51;;;;;;;9.10;7.30;;;;;;;11.45;65.28;94086.03;4993264;28;20599;-75
2023/05/19 02:51:17;;;;;;;10.00;8.23;;;;;;;11.48;65.55;94088.88;4992348;28;20463;-75
2023/05/19 02:53:42;;;;;;;10.23;7.95;;;;;;;11.43;65.50;94081.03;4978109;28;20021;-75
2023/05/19 02:56:08;;;;;;;10.95;7.75;;;;;;;11.52;64.61;94075.75;4986612;28;20022;-73
2023/05/19 02:58:33;;;;;;;15.43;7.88;;;;;;;11.48;65.02;94080.09;4986056;28;20123;-73
2023/05/19 03:00:59;;;;;;;11.65;7.82;;;;;;;11.45;65.03;94084.16;4997740;28;20522;-75
2023/05/19 03:03:25;;;;;;;9.63;8.43;;;;;;;11.33;65.94;94092.00;4980483;28;20520;-73
2023/05/19 03:05:52;;;;;;;11.43;8.55;;;;;;;11.43;65.62;94089.03;4984970;28;20520;-75
2023/05/19 03:08:18;;;;;;;10.65;8.45;;;;;;;11.32;65.38;94063.00;4989412;28;20069;-73
2023/05/19 03:10:44;;;;;;;9.73;7.75;;;;;;;11.39;66.06;94090.75;4978962;28;20723;-75
2023/05/19 03:13:10;;;;;;;11.70;9.07;;;;;;;11.22;66.14;94081.94;4990812;28;20140;-76
2023/05/19 03:15:35;;;;;;;12.85;9.30;;;;;;;11.30;66.37;94091.81;4995716;28;20045;-75
2023/05/19 03:18:01;;;;;;;11.38;8.85;;;;;;;11.32;66.37;94094.94;4997901;28;20033;-76
2023/05/19 03:20:26;;;;;;;12.40;8.63;;;;;;;11.37;65.90;94087.59;4981418;28;20029;-75
2023/05/19 03:22:52;;;;;;;16.90;8.48;;;;;;;11.45;66.07;94099.34;4994967;28;20508;-75
2023/05/19 03:25:17;;;;;;;12.00;7.80;;;;;;;11.49;65.67;94097.66;4995198;28;20170;-75
2023/05/19 03:27:42;;;;;;;12.32;8.82;;;;;;;11.43;65.59;94093.56;4994018;28;20459;-75
2023/05/19 03:30:08;;;;;;;11.27;9.38;;;;;;;11.42;66.04;94100.00;4993828;28;20034;-75
2023/05/19 03:32:36;;;;;;;12.40;9.73;;;;;;;11.40;66.24;94094.19;4987484;28;20018;-75
2023/05/19 03:35:03;;;;;;;13.60;9.85;;;;;;;11.35;66.08;94070.34;4987122;28;20375;-75
2023/05/19 03:37:29;;;;;;;13.18;9.30;;;;;;;11.38;66.42;94099.84;4997967;28;20050;-76
2023/05/19 03:39:54;;;;;;;11.52;9.25;;;;;;;11.42;66.15;94087.47;4990892;28;20046;-75
2023/05/19 03:42:20;;;;;;;12.18;9.55;;;;;;;11.26;67.16;94096.19;4989947;28;20038;-76
2023/05/19 03:44:45;;;;;;;11.98;9.88;;;;;;;11.21;67.26;94093.66;4989843;28;20926;-76
2023/05/19 03:47:11;;;;;;;14.30;9.57;;;;;;;11.16;67.70;94092.72;4985134;28;20036;-73
2023/05/19 03:49:36;;;;;;;12.73;9.55;;;;;;;11.18;67.92;94085.22;4986051;28;20216;-75
2023/05/19 03:52:02;;;;;;;10.85;8.65;;;;;;;11.27;67.39;94087.09;4981302;28;20618;-75
2023/05/19 03:54:27;;;;;;;11.95;10.00;;;;;;;11.12;68.16;94081.13;4992824;28;20038;-75
2023/05/19 03:56:53;;;;;;;11.68;9.50;;;;;;;11.11;68.18;94086.75;4990399;28;20026;-75
2023/05/19 03:59:18;;;;;;;11.48;9.05;;;;;;;11.22;67.58;94089.91;4989273;28;20202;-75
2023/05/19 04:01:45;;;;;;;14.27;10.18;;;;;;;11.07;68.43;94083.94;4993737;28;20580;-75
2023/05/19 04:04:10;;;;;;;12.55;9.63;;;;;;;11.31;67.45;94094.16;4989018;28;20030;-75
2023/05/19 04:06:36;;;;;;;12.48;9.23;;;;;;;11.14;68.18;94089.59;4993821;28;20037;-76
2023/05/19 04:09:10;;;;;;;12.75;9.07;;;;;;;11.46;67.73;94111.59;4983812;28;20061;-75
2023/05/19 04:11:36;;;;;;;12.45;9.40;;;;;;;11.52;67.32;94103.16;4979857;28;20121;-73
2023/05/19 04:14:01;;;;;;;13.60;10.15;;;;;;;11.37;68.02;94108.13;4989952;28;20392;-75
2023/05/19 04:16:26;;;;;;;13.55;9.40;;;;;;;11.21;67.58;94080.34;4989441;28;20033;-75
2023/05/19 04:18:52;;;;;;;14.70;9.32;;;;;;;11.47;67.44;94099.84;4983821;28;20402;-75
2023/05/19 04:21:17;;;;;;;13.88;9.77;;;;;;;11.50;67.83;94107.19;4992413;28;20040;-75
2023/05/19 04:23:43;;;;;;;13.55;9.90;;;;;;;11.56;67.24;94100.66;4996094;28;20018;-74
2023/05/19 04:26:08;;;;;;;10.65;8.82;;;;;;;11.35;68.08;94100.44;4991649;28;20037;-74
2023/05/19 04:28:37;;;;;;;13.02;9.80;;;;;;;11.65;66.98;94122.75;4990345;28;20397;-74
2023/05/19 04:31:03;;;;;;;12.70;9.68;;;;;;;11.59;67.14;94121.34;4986430;28;20584;-73
2023/05/19 04:33:28;;;;;;;15.80;9.85;;;;;;;11.87;66.13;94127.19;4978747;28;20123;-75
2023/05/19 04:35:53;;;;;;;12.85;9.75;;;;;;;11.88;66.93;94118.84;4990650;28;20022;-75
2023/05/19 04:38:20;;;;;;;11.85;8.95;;;;;;;11.76;66.40;94110.72;4993857;28;20029;-75
2023/05/19 04:40:48;;;;;;;11.43;8.63;;;;;;;11.71;66.47;94129.53;4972698;28;20093;-74
2023/05/19 04:43:14;;;;;;;11.80;9.30;;;;;;;11.67;66.43;94125.91;4975151;28;20461;-74
2023/05/19 04:45:41;;;;;;;12.52;10.25;;;;;;;11.79;66.61;94126.06;4975435;28;20049;-73
2023/05/19 04:48:06;;;;;;;14.07;9.38;;;;;;;11.85;66.58;94135.47;4981974;28;20029;-73
2023/05/19 04:50:32;;;;;;;11.80;9.02;;;;;;;11.83;67.13;94129.66;4980792;28;20034;-73
2023/05/19 04:52:58;;;;;;;11.63;9.13;;;;;;;11.43;67.03;94090.91;4980195;28;20924;-74
2023/05/19 04:55:23;;;;;;;13.07;9.30;;;;;;;11.92;66.32;94130.47;4993984;28;20172;-74
2023/05/19 04:57:49;;;;;;;13.60;9.25;;;;;;;11.94;66.04;94122.94;5001097;28;20580;-75
2023/05/19 05:00:14;;;;;;;14.70;9.98;;;;;;;11.98;66.12;94139.09;5000330;28;20463;-74
2023/05/19 05:02:41;;;;;;;17.27;9.88;;;;;;;12.11;65.57;94140.03;4998505;28;20037;-75
2023/05/19 05:05:08;;;;;;;15.13;9.70;;;;;;;12.18;65.15;94132.34;4990352;28;20029;-73
2023/05/19 05:07:33;;;;;;;10.23;8.82;;;;;;;12.01;65.72;94138.47;4997542;28;20132;-74
2023/05/19 05:09:58;;;;;;;12.45;8.38;;;;;;;12.09;65.49;94126.22;4998812;28;20034;-74
2023/05/19 05:12:24;;;;;;;11.85;8.98;;;;;;;12.22;65.63;94119.97;4996041;28;20038;-75
2023/05/19 05:14:50;;;;;;;12.00;9.68;;;;;;;12.36;64.99;94126.69;4997785;28;20030;-74
2023/05/19 05:17:15;;;;;;;11.57;9.27;;;;;;;12.37;65.45;94119.47;4998498;28;20369;-74
2023/05/19 05:19:41;;;;;;;14.25;9.02;;;;;;;12.56;65.39;94135.13;4998374;28;20047;-74
2023/05/19 05:22:07;;;;;;;12.75;9.20;;;;;;;12.64;64.37;94135.13;4999680;28;20029;-74
2023/05/19 05:24:32;;;;;;;15.73;8.32;;;;;;;12.82;65.04;94125.19;4991049;28;20038;-74
2023/05/19 05:26:58;;;;;;;12.60;9.48;;;;;;;12.68;63.57;94124.59;4998117;28;20477;-74
2023/05/19 05:29:24;;;;;;;11.88;8.95;;;;;;;12.84;63.55;94129.13;4993582;28;20033;-74
2023/05/19 05:31:49;;;;;;;11.43;9.52;;;;;;;12.81;63.40;94115.63;4998263;28;20037;-74
2023/05/19 05:34:15;;;;;;;12.80;8.98;;;;;;;12.93;63.35;94125.63;4996672;28;20049;-74
2023/05/19 05:36:40;;;;;;;17.58;8.52;;;;;;;13.17;62.53;94117.84;4995208;28;20037;-74
2023/05/19 05:39:06;;;;;;;11.48;8.98;;;;;;;13.35;63.36;94127.31;4996668;28;20045;-73
2023/05/19 05:41:34;;;;;;;10.18;8.68;;;;;;;13.49;62.27;94130.56;4996169;28;20030;-74
2023/05/19 05:44:03;;;;;;;11.73;8.93;;;;;;;13.46;62.12;94136.53;4997270;28;20519;-73
2023/05/19 05:46:29;;;;;;;11.52;8.63;;;;;;;13.62;62.29;94134.13;4996834;28;20404;-74
2023/05/19 05:48:54;;;;;;;11.05;8.43;;;;;;;13.62;61.04;94131.47;4996879;28;20049;-73
2023/05/19 05:51:21;;;;;;;9.63;8.60;;;;;;;13.31;62.29;94142.44;4997217;28;20436;-73
2023/05/19 05:53:53;;;;;;;15.55;8.00;;;;;;;13.15;64.23;94130.75;4997609;28;20088;-74
2023/05/19 05:56:20;;;;;;;12.63;8.85;;;;;;;13.12;62.88;94118.00;4998652;28;20989;-74
2023/05/19 05:58:45;;;;;;;11.43;8.68;;;;;;;13.45;62.56;94145.66;4997775;28;20188;-74
2023/05/19 06:01:11;;;;;;;13.77;9.00;;;;;;;13.59;62.40;94126.78;4995070;28;20046;-74
2023/05/19 06:03:41;;;;;;;15.77;10.15;;;;;;;13.78;60.63;94145.03;5000543;28;20034;-73
2023/05/19 06:06:06;;;;;;;13.48;8.45;;;;;;;13.72;60.82;94150.56;4997755;28;20099;-74
2023/05/19 06:08:32;;;;;;;22.52;9.30;;;;;;;14.09;61.13;94172.97;5000575;28;20472;-74
2023/05/19 06:10:58;;;;;;;16.23;9.02;;;;;;;14.04;61.13;94159.00;4998009;28;20153;-73
2023/05/19 06:13:24;;;;;;;12.10;8.32;;;;;;;14.33;59.39;94156.25;4995822;28;20062;-74
2023/05/19 06:15:50;;;;;;;11.77;9.43;;;;;;;14.31;60.32;94166.50;5012318;28;20045;-73
2023/05/19 06:18:16;;;;;;;12.02;8.50;;;;;;;14.41;57.93;94155.41;4998628;28;20044;-74
2023/05/19 06:20:41;;;;;;;11.75;7.55;;;;;;;14.43;55.77;94163.88;4997729;28;20026;-73
2023/05/19 06:23:07;;;;;;;11.43;6.65;;;;;;;14.50;55.12;94153.44;4998181;28;20435;-74
2023/05/19 06:25:32;;;;;;;10.60;7.60;;;;;;;14.58;55.96;94157.16;4996687;28;20041;-73
2023/05/19 06:27:57;;;;;;;10.57;7.82;;;;;;;14.68;55.75;94161.31;4996932;28;20116;-73
2023/05/19 06:30:23;;;;;;;14.10;7.25;;;;;;;14.72;55.88;94163.00;4999196;28;20046;-72
2023/05/19 06:32:48;;;;;;;10.52;7.22;;;;;;;14.75;57.00;94161.56;4983814;28;20466;-73
2023/05/19 06:35:14;;;;;;;10.30;7.65;;;;;;;14.02;58.87;94156.66;4996003;28;20037;-74
2023/05/19 06:37:39;;;;;;;15.30;7.80;;;;;;;14.58;55.59;94167.88;4997251;28;20135;-73
2023/05/19 06:40:05;;;;;;;8.40;6.38;;;;;;;14.70;54.44;94167.13;4996186;28;20037;-72
2023/05/19 06:42:31;;;;;;;8.48;6.63;;;;;;;14.84;54.92;94164.94;4995432;28;20504;-73
2023/05/19 06:44:56;;;;;;;11.52;7.43;;;;;;;15.09;55.28;94163.91;4997897;28;20048;-74
2023/05/19 06:47:22;;;;;;;10.27;6.97;;;;;;;15.03;54.94;94162.53;4996633;28;20037;-75
2023/05/19 06:49:53;;;;;;;10.55;7.82;;;;;;;14.65;54.64;94162.00;4993304;28;20280;-74
2023/05/19 06:52:20;;;;;;;10.18;7.25;;;;;;;14.88;56.49;94153.25;4993691;28;20038;-73
2023/05/19 06:54:45;;;;;;;15.05;8.00;;;;;;;15.26;54.71;94149.50;5000935;28;20053;-75
2023/05/19 06:57:10;;;;;;;12.73;7.15;;;;;;;15.41;54.97;94151.50;4994575;28;20045;-74
2023/05/19 06:59:36;;;;;;;12.00;8.45;;;;;;;15.58;55.69;94167.44;4991149;28;20033;-72
2023/05/19 07:02:03;;;;;;;9.18;7.38;;;;;;;15.73;55.18;94168.66;4994132;28;20060;-75
2023/05/19 07:04:28;;;;;;;10.68;7.15;;;;;;;15.36;53.12;94157.88;4997862;28;20053;-75
2023/05/19 07:06:54;;;;;;;8.25;6.57;;;;;;;15.48;51.44;94170.56;4997530;28;20389;-74
2023/05/19 07:09:19;;;;;;;8.70;6.20;;;;;;;15.46;51.66;94176.22;4994322;28;20666;-75
2023/05/19 07:11:45;;;;;;;10.73;7.22;;;;;;;15.28;52.29;94180.22;4994205;28;20542;-75
2023/05/19 07:14:13;;;;;;;12.35;6.57;;;;;;;15.76;50.86;94165.28;4989633;28;20033;-75
2023/05/19 07:16:38;;;;;;;12.25;6.85;;;;;;;15.74;53.44;94176.34;4997837;28;20125;-74
2023/05/19 07:19:03;;;;;;;8.60;6.85;;;;;;;15.43;52.38;94166.16;4983907;28;20391;-75
2023/05/19 07:21:29;;;;;;;9.60;6.38;;;;;;;15.73;52.19;94172.13;4985684;28;20095;-76
2023/05/19 07:23:54;;;;;;;9.68;7.45;;;;;;;15.40;51.85;94184.81;4997454;28;20272;-75
2023/05/19 07:26:21;;;;;;;10.82;6.50;;;;;;;15.39;51.66;94167.94;4993937;28;20034;-73
2023/05/19 07:28:46;;;;;;;13.35;7.13;;;;;;;15.60;50.64;94191.97;4997255;28;20610;-74
2023/05/19 07:31:12;;;;;;;8.25;7.03;;;;;;;15.76;50.77;94176.00;4996689;28;20103;-73
2023/05/19 07:33:37;;;;;;;10.20;7.07;;;;;;;15.82;51.41;94166.63;4997758;28;20029;-76
2023/05/19 07:36:03;;;;;;;10.18;7.43;;;;;;;16.19;50.34;94167.31;4993971;28;20038;-73
2023/05/19 07:38:33;;;;;;;11.85;7.75;;;;;;;16.13;54.02;94182.91;5002017;28;20660;-74
2023/05/19 07:40:58;;;;;;;12.88;8.23;;;;;;;15.38;53.09;94179.00;4996311;28;20052;-74
2023/05/19 07:43:24;;;;;;;12.98;8.55;;;;;;;15.66;53.79;94181.81;4995760;28;20500;-74
2023/05/19 07:45:49;;;;;;;19.60;9.70;;;;;;;15.96;52.86;94187.72;4995578;28;20552;-74
2023/05/19 07:48:17;;;;;;;11.73;7.53;;;;;;;15.33;54.24;94153.19;4994457;28;20044;-73
2023/05/19 07:50:42;;;;;;;13.20;8.27;;;;;;;15.15;53.50;94189.38;4994895;28;20431;-74
2023/05/19 07:53:08;;;;;;;15.30;8.50;;;;;;;15.33;52.78;94168.50;4996641;28;20026;-74
2023/05/19 07:55:33;;;;;;;10.40;7.97;;;;;;;15.78;52.36;94184.50;4998781;28;20569;-74
2023/05/19 07:57:59;;;;;;;14.68;8.57;;;;;;;16.04;51.14;94187.59;4993122;28;20037;-74
2023/05/19 08:00:25;;;;;;;10.43;8.43;;;;;;;15.84;50.66;94169.75;4998686;28;20038;-75
2023/05/19 08:02:51;;;;;;;11.10;9.10;;;;;;;15.67;52.06;94146.63;4995947;28;20056;-75
2023/05/19 08:05:17;;;;;;;12.82;8.05;;;;;;;15.41;54.29;94168.38;4998484;28;20025;-74
2023/05/19 08:07:42;;;;;;;16.45;7.95;;;;;;;14.99;53.24;94173.13;4994634;28;20399;-74
2023/05/19 08:10:08;;;;;;;14.80;9.60;;;;;;;15.31;52.59;94187.56;4995780;28;20037;-74
2023/05/19 08:12:33;;;;;;;10.00;8.68;;;;;;;15.45;53.56;94179.25;4993866;28;20048;-74
2023/05/19 08:14:59;;;;;;;15.95;10.65;;;;;;;15.02;52.86;94182.38;4997864;28;20497;-75
2023/05/19 08:17:24;;;;;;;12.48;9.45;;;;;;;15.51;52.48;94185.16;4992404;28;20022;-76
2023/05/19 08:19:50;;;;;;;12.43;9.75;;;;;;;15.41;54.28;94176.44;4995917;28;20069;-75
2023/05/19 08:22:15;;;;;;;14.13;10.30;;;;;;;15.37;53.14;94194.28;4996365;28;20041;-73
2023/05/19 08:24:42;;;;;;;14.45;9.98;;;;;;;15.18;52.45;94169.16;4994048;28;20500;-74
2023/05/19 08:27:07;;;;;;;16.08;9.77;;;;;;;15.45;52.25;94176.56;4987151;28;20030;-74
2023/05/19 08:29:33;;;;;;;12.07;9.23;;;;;;;15.26;53.35;94171.72;4995506;28;20064;-73
2023/05/19 08:31:59;;;;;;;11.07;8.57;;;;;;;15.39;54.30;94154.56;4995906;28;20038;-74
2023/05/19 08:34:25;;;;;;;12.88;9.32;;;;;;;16.03;53.06;94174.53;4993602;28;20125;-74
2023/05/19 08:36:50;;;;;;;19.38;10.88;;;;;;;15.92;51.89;94166.16;4994066;28;20056;-75
2023/05/19 08:39:17;;;;;;;14.35;9.48;;;;;;;16.05;53.70;94170.38;4995423;28;20037;-75
2023/05/19 08:41:43;;;;;;;18.55;10.55;;;;;;;16.01;52.06;94174.88;4996048;28;20029;-76
2023/05/19 08:44:09;;;;;;;11.70;9.68;;;;;;;15.34;53.87;94157.44;4993157;28;20022;-76
2023/05/19 08:46:34;;;;;;;13.95;10.35;;;;;;;15.26;55.72;94169.03;5002846;28;20073;-75
2023/05/19 08:49:10;;;;;;;13.27;9.82;;;;;;;15.48;53.30;94157.16;4996268;28;20041;-74
2023/05/19 08:51:48;;;;;;;17.48;11.02;;;;;;;15.57;53.20;94165.06;4995283;28;20523;-74
2023/05/19 08:54:14;;;;;;;17.20;10.50;;;;;;;15.46;52.46;94165.50;4982993;28;20530;-75
2023/05/19 08:56:45;;;;;;;15.20;9.52;;;;;;;16.01;53.54;94166.81;4994748;28;20038;-75
2023/05/19 08:59:13;;;;;;;13.82;9.88;;;;;;;16.16;53.01;94171.47;4995289;28;20523;-74
2023/05/19 09:01:41;;;;;;;17.98;10.55;;;;;;;15.63;51.58;94144.97;4995874;28;20515;-74
2023/05/19 09:04:08;;;;;;;14.40;9.90;;;;;;;16.07;53.91;94178.09;5001923;28;20041;-75
2023/05/19 09:06:34;;;;;;;17.55;10.45;;;;;;;16.19;52.23;94159.28;4996170;28;20080;-74
2023/05/19 09:08:59;;;;;;;15.02;10.85;;;;;;;16.17;52.98;94166.91;4994356;28;20478;-73
2023/05/19 09:11:24;;;;;;;13.90;10.38;;;;;;;16.45;51.50;94164.28;4996132;28;20536;-73
2023/05/19 09:13:50;;;;;;;13.13;10.27;;;;;;;16.33;51.85;94164.31;4994019;28;20508;-75
2023/05/19 09:16:16;;;;;;;15.40;10.05;;;;;;;16.13;52.97;94152.59;4996047;28;20474;-74
2023/05/19 09:18:54;;;;;;;18.00;10.50;;;;;;;15.87;53.20;94152.97;4994271;28;20038;-74
2023/05/19 09:21:25;;;;;;;16.83;12.30;;;;;;;15.61;53.79;94104.28;4993561;28;20037;-74
2023/05/19 09:23:51;;;;;;;17.55;10.75;;;;;;;15.62;52.38;94157.59;4993977;28;20028;-75
2023/05/19 09:26:16;;;;;;;13.68;10.43;;;;;;;15.71;53.07;94149.41;4997697;28;20022;-75
2023/05/19 09:28:43;;;;;;;15.35;11.52;;;;;;;15.41;52.64;94144.25;4991593;28;20084;-75
2023/05/19 09:31:09;;;;;;;17.05;11.30;;;;;;;15.42;53.66;94119.03;4989379;28;20038;-75
2023/05/19 09:33:36;;;;;;;17.83;11.43;;;;;;;15.87;51.71;94148.41;4992269;28;20500;-75
2023/05/19 09:36:04;;;;;;;15.23;11.55;;;;;;;15.85;52.36;94160.56;4999813;28;20057;-77
2023/05/19 09:38:30;;;;;;;16.48;12.40;;;;;;;15.97;53.23;94149.84;4999568;28;20037;-75
2023/05/19 09:40:58;;;;;;;18.95;12.13;;;;;;;16.27;52.27;94145.75;4999107;28;20037;-76
2023/05/19 09:43:26;;;;;;;14.88;11.23;;;;;;;15.94;50.56;94139.78;4999694;28;20060;-74
2023/05/19 09:46:02;;;;;;;16.05;11.48;;;;;;;15.51;51.92;94140.38;4998141;28;20038;-74
2023/05/19 09:48:29;;;;;;;16.33;11.45;;;;;;;15.81;51.26;94143.59;4990725;28;20424;-73
2023/05/19 09:50:56;;;;;;;16.38;11.88;;;;;;;15.91;50.56;94143.13;4999113;28;20029;-72
2023/05/19 09:53:22;;;;;;;20.23;11.63;;;;;;;15.60;50.42;94142.94;4996698;28;20041;-74
2023/05/19 09:55:48;;;;;;;17.48;12.43;;;;;;;15.44;50.34;94113.38;4997638;28;20046;-73
2023/05/19 09:58:18;;;;;;;17.20;11.50;;;;;;;16.13;51.36;94141.88;4998305;28;20038;-74
2023/05/19 10:00:45;;;;;;;19.08;11.18;;;;;;;15.67;51.22;94102.94;4996306;28;20479;-74
2023/05/19 10:03:11;;;;;;;21.10;12.20;;;;;;;15.88;49.92;94135.78;4998361;28;20034;-75
2023/05/19 10:05:37;;;;;;;16.85;11.40;;;;;;;15.92;49.50;94144.72;4994630;28;20028;-74
2023/05/19 10:08:06;;;;;;;18.67;10.27;;;;;;;16.08;48.16;94137.53;4996838;28;20033;-76
2023/05/19 10:10:32;;;;;;;16.00;11.45;;;;;;;16.14;49.62;94143.41;4997788;28;20065;-75
2023/05/19 10:12:59;;;;;;;16.05;10.88;;;;;;;16.12;50.76;94135.72;4995814;28;20101;-75
2023/05/19 10:15:25;;;;;;;16.60;11.60;;;;;;;16.30;51.17;94133.53;4996485;28;20671;-75
2023/05/19 10:17:51;;;;;;;15.95;11.52;;;;;;;16.26;51.86;94129.97;4996944;28;20033;-74
2023/05/19 10:20:16;;;;;;;20.70;12.13;;;;;;;16.57;50.96;94130.13;4983617;28;20503;-75
2023/05/19 10:22:44;;;;;;;18.08;10.48;;;;;;;16.51;48.41;94128.78;4993334;28;20065;-75
2023/05/19 10:25:11;;;;;;;14.27;10.73;;;;;;;16.76;48.98;94132.16;5009883;28;20084;-76
2023/05/19 10:27:45;;;;;;;17.08;11.30;;;;;;;16.88;47.85;94115.94;4994856;28;20054;-75
2023/05/19 10:30:17;;;;;;;12.80;9.98;;;;;;;16.68;48.83;94104.31;4989562;28;20460;-75
2023/05/19 10:32:45;;;;;;;15.75;10.80;;;;;;;16.73;47.47;94119.38;4996483;28;20022;-74
2023/05/19 10:35:10;;;;;;;16.80;12.02;;;;;;;16.56;48.36;94125.09;4994806;28;20785;-75
2023/05/19 10:37:56;;;;;;;23.25;11.65;;;;;;;16.47;48.51;94116.41;4998523;28;20054;-75
2023/05/19 10:40:33;;;;;;;18.85;10.68;;;;;;;16.68;48.88;94120.41;4995731;28;20044;-75
2023/05/19 10:43:12;;;;;;;23.00;10.88;;;;;;;16.58;47.37;94117.44;4997288;28;20121;-75
2023/05/19 10:45:50;;;;;;;13.18;10.43;;;;;;;16.77;48.09;94126.41;4997579;28;20048;-75
2023/05/19 10:48:18;;;;;;;18.38;10.40;;;;;;;16.77;46.67;94110.28;4997292;28;20127;-75
2023/05/19 10:50:45;;;;;;;16.50;11.30;;;;;;;17.29;45.73;94108.53;4997344;28;20197;-75
2023/05/19 10:53:19;;;;;;;13.75;10.25;;;;;;;17.58;44.96;94110.78;4996938;28;20021;-75
2023/05/19 10:55:55;;;;;;;16.08;10.55;;;;;;;17.77;45.00;94102.75;4995863;28;20444;-75
2023/05/19 10:58:48;;;;;;;14.88;11.40;;;;;;;17.00;46.98;94105.13;4998757;28;22316;-74
2023/05/19 11:01:14;;;;;;;19.85;11.65;;;;;;;16.73;45.61;94097.91;4996893;28;20042;-75
2023/05/19 11:03:55;;;;;;;16.65;10.45;;;;;;;16.92;47.33;94105.28;4998940;28;20049;-74
2023/05/19 11:06:28;;;;;;;13.60;11.02;;;;;;;17.18;45.78;94101.00;5011472;28;20092;-75
2023/05/19 11:08:59;;;;;;;14.27;11.30;;;;;;;17.46;44.70;94113.53;4997850;28;20029;-76
2023/05/19 11:11:25;;;;;;;17.73;10.60;;;;;;;17.47;43.72;94090.91;4992209;28;20116;-76
2023/05/19 11:13:55;;;;;;;16.13;11.15;;;;;;;17.87;45.11;94091.44;4997769;28;20046;-74
2023/05/19 11:16:33;;;;;;;14.82;10.23;;;;;;;17.43;43.85;94090.06;4997976;28;20132;-75
2023/05/19 11:18:59;;;;;;;13.57;10.98;;;;;;;17.56;44.13;94108.41;4997449;28;20040;-75
2023/05/19 11:21:51;;;;;;;14.88;11.23;;;;;;;17.50;43.52;94098.28;4994743;28;20034;-76
2023/05/19 11:24:35;;;;;;;16.52;10.07;;;;;;;17.97;43.95;94101.69;4984915;28;20416;-75
2023/05/19 11:27:25;;;;;;;16.70;9.48;;;;;;;18.00;43.98;94095.59;4997128;28;20048;-75